Time;durP1;ratioP1;P1;durP2;ratioP2;P2;SDS_P1;SDS_P2;PMS_P1;PMS_P2;Temp;Humidity;BMP_temperature;BMP_pressure;BME280_temperature;BME280_humidity;BME280_pressure;Samples;Min_cycle;Max_cycle;Signal;HPM_P1;HPM_P2
2023/01/25 00:00:42;;;;;;;5.55;3.95;;;;;;;;;;12839775;19;20456;-73
2023/01/25 00:05:12;;;;;;;6.28;4.38;;;;;;;;;;12842085;19;20370;-71
2023/01/25 00:09:30;;;;;;;5.50;3.65;;;;;;;;;;12840928;19;20077;-71
2023/01/25 00:13:48;;;;;;;7.40;3.90;;;;;;;;;;12841305;19;20473;-72
2023/01/25 00:18:05;;;;;;;6.55;4.95;;;;;;;;;;12839689;19;20492;-71
2023/01/25 00:22:23;;;;;;;4.40;3.30;;;;;;;;;;12841148;19;20778;-72
2023/01/25 00:26:42;;;;;;;4.82;2.47;;;;;;;;;;12839753;19;20365;-72
2023/01/25 00:31:06;;;;;;;4.93;3.58;;;;;;;;;;12838978;19;20492;-71
2023/01/25 00:35:31;;;;;;;5.43;2.75;;;;;;;;;;12839638;19;20485;-71
2023/01/25 00:39:48;;;;;;;6.20;2.90;;;;;;;;;;12838174;19;20460;-72
2023/01/25 00:44:06;;;;;;;6.30;2.42;;;;;;;;;;12835563;19;20362;-72
2023/01/25 00:48:23;;;;;;;4.78;3.03;;;;;;;;;;12836568;19;20322;-71
2023/01/25 00:52:41;;;;;;;4.60;3.78;;;;;;;;;;12840096;19;20488;-72
2023/01/25 00:56:59;;;;;;;5.22;3.00;;;;;;;;;;12835949;19;20467;-72
2023/01/25 01:01:16;;;;;;;5.32;3.20;;;;;;;;;;12834905;19;20011;-72
2023/01/25 01:05:35;;;;;;;4.57;3.10;;;;;;;;;;12838787;19;20448;-71
2023/01/25 01:09:52;;;;;;;5.88;3.08;;;;;;;;;;12838717;19;20433;-72
2023/01/25 01:14:11;;;;;;;4.97;3.10;;;;;;;;;;12836526;19;20437;-73
2023/01/25 01:18:40;;;;;;;4.70;2.83;;;;;;;;;;12837305;19;20421;-72
2023/01/25 01:22:58;;;;;;;5.90;3.22;;;;;;;;;;12837332;19;20360;-72
2023/01/25 01:27:16;;;;;;;5.70;3.55;;;;;;;;;;12834197;19;20468;-71
2023/01/25 01:31:34;;;;;;;6.85;4.03;;;;;;;;;;12834770;19;20580;-73
2023/01/25 01:35:51;;;;;;;8.18;4.03;;;;;;;;;;12835823;19;20027;-72
2023/01/25 01:40:14;;;;;;;6.57;3.83;;;;;;;;;;12838637;19;20451;-72
2023/01/25 01:44:53;;;;;;;6.78;3.17;;;;;;;;;;12847361;19;20022;-72
2023/01/25 01:49:21;;;;;;;12.27;6.00;;;;;;;;;;12847733;19;20453;-71
2023/01/25 01:53:42;;;;;;;10.75;4.95;;;;;;;;;;12846261;19;20451;-71
2023/01/25 01:58:02;;;;;;;5.38;3.22;;;;;;;;;;12846109;19;20493;-71
2023/01/25 02:02:20;;;;;;;8.90;4.40;;;;;;;;;;12846951;19;20015;-71
2023/01/25 02:06:57;;;;;;;13.07;5.20;;;;;;;;;;12846782;19;20736;-71
2023/01/25 02:11:15;;;;;;;7.25;3.80;;;;;;;;;;12844963;19;20496;-71
2023/01/25 02:15:46;;;;;;;5.53;2.72;;;;;;;;;;12843676;19;20010;-72
2023/01/25 02:20:39;;;;;;;5.43;3.00;;;;;;;;;;12845013;19;20480;-71
2023/01/25 02:25:10;;;;;;;6.68;3.75;;;;;;;;;;12845418;19;20356;-72
2023/01/25 02:29:28;;;;;;;5.45;2.83;;;;;;;;;;12844305;19;20474;-71
2023/01/25 02:33:46;;;;;;;7.80;4.75;;;;;;;;;;12844443;19;20493;-71
2023/01/25 02:38:05;;;;;;;9.52;4.72;;;;;;;;;;12843516;19;20066;-72
2023/01/25 02:42:23;;;;;;;12.55;6.35;;;;;;;;;;12844061;19;20376;-71
2023/01/25 02:46:43;;;;;;;4.05;2.17;;;;;;;;;;12844561;19;20081;-72
2023/01/25 02:51:01;;;;;;;4.65;2.83;;;;;;;;;;12843527;19;20496;-73
2023/01/25 02:55:19;;;;;;;;;;;;;;;;;;12845408;19;20460;-72
2023/01/25 02:59:37;;;;;;;23.47;10.30;;;;;;;;;;12842906;19;20387;-73
2023/01/25 03:03:54;;;;;;;7.88;4.00;;;;;;;;;;12843215;19;20291;-72
2023/01/25 03:08:12;;;;;;;10.83;4.37;;;;;;;;;;12841454;19;20352;-72
2023/01/25 03:12:29;;;;;;;5.97;3.30;;;;;;;;;;12841661;19;20372;-72
2023/01/25 03:16:47;;;;;;;5.82;3.25;;;;;;;;;;12841777;19;20490;-72
2023/01/25 03:21:07;;;;;;;6.97;3.70;;;;;;;;;;12843419;19;20343;-71
2023/01/25 03:25:25;;;;;;;4.47;2.55;;;;;;;;;;12845483;19;20290;-73
2023/01/25 03:29:44;;;;;;;6.32;3.83;;;;;;;;;;12840628;19;20366;-71
2023/01/25 03:34:02;;;;;;;6.32;3.78;;;;;;;;;;12841408;19;20518;-72
2023/01/25 03:38:20;;;;;;;5.07;3.07;;;;;;;;;;12839929;19;20072;-72
2023/01/25 03:42:38;;;;;;;5.10;3.13;;;;;;;;;;12840226;19;20732;-71
2023/01/25 03:46:55;;;;;;;4.93;2.97;;;;;;;;;;12841427;19;20011;-72
2023/01/25 03:51:13;;;;;;;3.88;3.03;;;;;;;;;;12841166;19;20741;-71
2023/01/25 03:55:31;;;;;;;13.20;5.10;;;;;;;;;;12840768;19;20655;-72
2023/01/25 03:59:48;;;;;;;6.30;3.22;;;;;;;;;;12841615;19;20472;-72
2023/01/25 04:04:06;;;;;;;3.95;2.50;;;;;;;;;;12838452;19;20082;-70
2023/01/25 04:08:25;;;;;;;6.27;3.10;;;;;;;;;;12841820;19;20341;-71
2023/01/25 04:12:42;;;;;;;6.40;3.50;;;;;;;;;;12839911;19;20746;-70
2023/01/25 04:17:04;;;;;;;14.80;7.03;;;;;;;;;;12839917;19;20489;-72
2023/01/25 04:21:22;;;;;;;7.13;3.95;;;;;;;;;;12839796;19;20573;-72
2023/01/25 04:25:39;;;;;;;9.00;4.53;;;;;;;;;;12837573;19;20492;-72
2023/01/25 04:29:57;;;;;;;9.98;5.22;;;;;;;;;;12839532;19;20430;-71
2023/01/25 04:34:15;;;;;;;8.63;4.43;;;;;;;;;;12837812;19;20014;-72
2023/01/25 04:38:32;;;;;;;6.00;3.42;;;;;;;;;;12839239;19;20504;-70
2023/01/25 04:42:50;;;;;;;6.30;3.55;;;;;;;;;;12839431;19;20341;-71
2023/01/25 04:47:07;;;;;;;4.70;2.85;;;;;;;;;;12837146;19;20477;-71
2023/01/25 04:51:25;;;;;;;5.50;2.97;;;;;;;;;;12839408;19;20482;-70
2023/01/25 04:55:46;;;;;;;5.60;3.75;;;;;;;;;;12835763;19;20812;-71
2023/01/25 05:00:08;;;;;;;7.63;3.90;;;;;;;;;;12838217;19;20346;-71
2023/01/25 05:04:26;;;;;;;8.63;4.88;;;;;;;;;;12835380;19;20354;-72
2023/01/25 05:08:44;;;;;;;9.10;4.72;;;;;;;;;;12837279;19;20368;-70
2023/01/25 05:13:01;;;;;;;8.48;4.65;;;;;;;;;;12836677;19;20350;-71
2023/01/25 05:17:19;;;;;;;8.43;4.70;;;;;;;;;;12849535;19;20013;-71
2023/01/25 05:30:50;;;;;;;11.57;7.25;;;;;;;;;;12849465;19;20014;-71
2023/01/25 05:35:08;;;;;;;11.88;5.70;;;;;;;;;;12849137;19;20363;-72
2023/01/25 05:39:26;;;;;;;8.70;5.38;;;;;;;;;;12848827;19;20302;-71
2023/01/25 05:43:48;;;;;;;10.00;6.15;;;;;;;;;;12846478;19;20383;-71
2023/01/25 05:48:05;;;;;;;14.13;5.55;;;;;;;;;;12848109;19;20082;-72
2023/01/25 05:52:23;;;;;;;10.40;5.43;;;;;;;;;;12848995;19;20500;-71
2023/01/25 05:56:42;;;;;;;10.57;5.57;;;;;;;;;;12846326;19;20023;-71
2023/01/25 06:01:05;;;;;;;26.50;11.75;;;;;;;;;;12847713;19;20392;-71
2023/01/25 06:05:23;;;;;;;10.20;6.78;;;;;;;;;;12850920;19;20038;-71
2023/01/25 06:09:40;;;;;;;8.70;5.68;;;;;;;;;;12845849;19;20048;-71
2023/01/25 06:13:58;;;;;;;7.10;4.32;;;;;;;;;;12845949;19;20388;-72
2023/01/25 06:18:15;;;;;;;7.50;4.03;;;;;;;;;;12845590;19;20722;-70
2023/01/25 06:22:33;;;;;;;6.18;3.83;;;;;;;;;;12847044;19;20480;-70
2023/01/25 06:26:50;;;;;;;5.75;3.38;;;;;;;;;;12845805;19;20417;-71
2023/01/25 06:31:16;;;;;;;9.53;5.63;;;;;;;;;;12845383;19;20464;-70
2023/01/25 06:35:34;;;;;;;7.55;4.90;;;;;;;;;;12844214;19;20454;-71
2023/01/25 06:39:52;;;;;;;22.33;12.32;;;;;;;;;;12846332;19;20131;-71
2023/01/25 06:44:10;;;;;;;;;;;;;;;;;;12843324;19;20370;-70
2023/01/25 06:48:29;;;;;;;7.10;4.50;;;;;;;;;;12843201;19;19927;-71
2023/01/25 06:52:53;;;;;;;9.70;5.97;;;;;;;;;;12845721;19;20485;-71
2023/01/25 06:57:11;;;;;;;9.52;6.60;;;;;;;;;;12842775;19;20460;-71
2023/01/25 07:01:29;;;;;;;8.43;5.78;;;;;;;;;;12845024;19;20492;-71
2023/01/25 07:05:48;;;;;;;6.45;3.67;;;;;;;;;;12843573;19;20489;-72
2023/01/25 07:10:06;;;;;;;13.55;6.70;;;;;;;;;;12843777;19;20363;-72
2023/01/25 07:14:23;;;;;;;10.73;6.55;;;;;;;;;;12840746;19;20440;-71
2023/01/25 07:18:41;;;;;;;20.63;10.27;;;;;;;;;;12842379;19;20480;-70
2023/01/25 07:22:59;;;;;;;13.70;7.68;;;;;;;;;;12843850;19;20305;-72
2023/01/25 07:27:18;;;;;;;6.15;3.40;;;;;;;;;;12842870;19;20086;-71
2023/01/25 07:31:36;;;;;;;5.85;3.40;;;;;;;;;;12840997;19;20438;-70
2023/01/25 07:35:58;;;;;;;6.20;3.72;;;;;;;;;;12840901;19;20026;-70
2023/01/25 07:40:15;;;;;;;8.98;4.82;;;;;;;;;;12839872;19;20512;-71
2023/01/25 07:44:33;;;;;;;8.63;5.10;;;;;;;;;;12839879;19;20480;-71
2023/01/25 07:48:52;;;;;;;9.23;5.07;;;;;;;;;;12842570;19;20517;-71
2023/01/25 07:53:10;;;;;;;7.82;5.30;;;;;;;;;;12841370;19;20368;-71
2023/01/25 07:57:27;;;;;;;14.30;7.80;;;;;;;;;;12841200;19;20535;-71
2023/01/25 08:01:45;;;;;;;5.32;3.22;;;;;;;;;;12839657;19;20314;-70
2023/01/25 08:06:04;;;;;;;4.97;3.08;;;;;;;;;;12840621;19;20018;-73
2023/01/25 08:10:22;;;;;;;7.53;4.90;;;;;;;;;;12839783;19;20429;-71
2023/01/25 08:14:39;;;;;;;16.70;10.40;;;;;;;;;;12840577;19;20353;-73
2023/01/25 08:19:00;;;;;;;12.10;6.97;;;;;;;;;;12840826;19;20228;-71
2023/01/25 08:23:19;;;;;;;7.40;4.65;;;;;;;;;;12839487;19;20095;-71
2023/01/25 08:27:36;;;;;;;4.18;3.17;;;;;;;;;;12837621;19;20465;-71
2023/01/25 08:31:54;;;;;;;6.57;4.28;;;;;;;;;;12838690;19;20355;-71
2023/01/25 08:36:14;;;;;;;10.32;6.68;;;;;;;;;;12836313;19;20366;-71
2023/01/25 08:40:31;;;;;;;47.70;22.48;;;;;;;;;;12838370;19;20032;-72
2023/01/25 08:44:53;;;;;;;22.05;14.45;;;;;;;;;;12836721;19;20496;-71
2023/01/25 08:49:10;;;;;;;9.82;6.80;;;;;;;;;;12836380;19;20472;-71
2023/01/25 08:53:30;;;;;;;16.08;8.60;;;;;;;;;;12838733;19;20386;-72
2023/01/25 08:57:48;;;;;;;13.35;7.75;;;;;;;;;;12837787;19;20550;-72
2023/01/25 09:02:06;;;;;;;3.45;2.58;;;;;;;;;;12836731;19;20015;-70
2023/01/25 09:06:23;;;;;;;7.20;3.95;;;;;;;;;;12836352;19;20441;-71
2023/01/25 09:10:41;;;;;;;6.78;5.20;;;;;;;;;;12837712;19;20429;-72
2023/01/25 09:14:59;;;;;;;41.10;15.80;;;;;;;;;;12834962;19;20460;-72
2023/01/25 09:19:16;;;;;;;16.48;7.88;;;;;;;;;;12836006;19;20440;-72
2023/01/25 09:23:34;;;;;;;29.85;13.88;;;;;;;;;;12837206;19;20048;-71
2023/01/25 09:28:10;;;;;;;5.07;3.22;;;;;;;;;;12834084;19;20331;-72
2023/01/25 09:32:28;;;;;;;11.57;6.28;;;;;;;;;;12835766;19;20052;-72
2023/01/25 09:36:46;;;;;;;4.32;3.17;;;;;;;;;;12836399;19;20542;-71
2023/01/25 09:41:26;;;;;;;9.10;5.95;;;;;;;;;;12830082;19;20689;-70
2023/01/25 09:45:44;;;;;;;12.68;7.22;;;;;;;;;;12835284;19;19999;-72
2023/01/25 09:50:25;;;;;;;;;;;;;;;;;;12835122;19;20019;-72
2023/01/25 09:54:45;;;;;;;10.85;6.45;;;;;;;;;;12837424;19;20282;-71
2023/01/25 09:59:13;;;;;;;14.13;8.82;;;;;;;;;;12834933;19;20506;-72
2023/01/25 10:03:54;;;;;;;12.40;8.52;;;;;;;;;;12846043;19;20417;-71
2023/01/25 10:08:27;;;;;;;41.58;17.42;;;;;;;;;;12845606;19;20461;-72
2023/01/25 10:12:45;;;;;;;29.75;13.30;;;;;;;;;;12845477;19;20469;-71
2023/01/25 10:17:13;;;;;;;9.65;6.18;;;;;;;;;;12844248;19;20371;-71
2023/01/25 10:21:39;;;;;;;9.57;5.35;;;;;;;;;;12845378;19;20420;-70
2023/01/25 10:25:59;;;;;;;8.18;5.65;;;;;;;;;;12844645;19;20459;-72
2023/01/25 10:30:40;;;;;;;9.10;6.65;;;;;;;;;;12843999;19;20429;-70
2023/01/25 10:35:14;;;;;;;7.22;4.10;;;;;;;;;;12845133;19;20355;-70
2023/01/25 10:40:00;;;;;;;9.65;4.88;;;;;;;;;;12844558;19;20455;-70
2023/01/25 10:44:26;;;;;;;7.28;4.85;;;;;;;;;;12845232;19;20432;-71
2023/01/25 10:48:44;;;;;;;7.93;5.30;;;;;;;;;;12844168;19;20477;-71
2023/01/25 10:53:02;;;;;;;6.90;4.97;;;;;;;;;;12845070;19;20340;-70
2023/01/25 10:57:21;;;;;;;14.68;8.65;;;;;;;;;;12843801;19;20380;-71
2023/01/25 11:01:39;;;;;;;17.17;9.48;;;;;;;;;;12844737;19;20496;-70
2023/01/25 11:05:58;;;;;;;15.68;8.32;;;;;;;;;;12843161;19;20340;-70
2023/01/25 11:10:36;;;;;;;16.67;8.27;;;;;;;;;;12842197;19;20382;-71
2023/01/25 11:14:54;;;;;;;12.07;5.57;;;;;;;;;;12842746;19;20369;-71
2023/01/25 11:19:31;;;;;;;15.00;8.60;;;;;;;;;;12841581;19;20359;-72
2023/01/25 11:24:10;;;;;;;17.02;9.05;;;;;;;;;;12844497;19;20717;-71
2023/01/25 11:28:28;;;;;;;25.02;12.90;;;;;;;;;;12842902;19;20440;-72
2023/01/25 11:32:45;;;;;;;23.05;11.82;;;;;;;;;;12842012;19;20413;-70
2023/01/25 11:37:25;;;;;;;18.70;9.68;;;;;;;;;;12841966;19;20440;-71
2023/01/25 11:42:32;;;;;;;24.65;14.00;;;;;;;;;;12840804;19;20358;-70
2023/01/25 11:47:22;;;;;;;23.93;9.77;;;;;;;;;;12842905;19;20370;-70
2023/01/25 11:51:53;;;;;;;15.30;7.97;;;;;;;;;;12840448;19;20430;-70
2023/01/25 11:57:10;;;;;;;11.55;6.40;;;;;;;;;;12838920;19;20362;-70
2023/01/25 12:01:50;;;;;;;52.88;19.63;;;;;;;;;;12838817;19;20360;-70
2023/01/25 12:06:22;;;;;;;57.95;19.60;;;;;;;;;;12840827;19;20460;-71
2023/01/25 12:11:03;;;;;;;88.85;25.05;;;;;;;;;;12841135;19;20082;-70
2023/01/25 12:15:37;;;;;;;90.10;24.35;;;;;;;;;;12838720;19;20471;-70
2023/01/25 12:20:31;;;;;;;20.42;10.05;;;;;;;;;;12841717;19;20370;-72
2023/01/25 12:25:02;;;;;;;38.13;18.92;;;;;;;;;;12837679;19;20508;-70
2023/01/25 12:29:49;;;;;;;48.67;15.45;;;;;;;;;;12837914;19;20481;-70
2023/01/25 12:34:18;;;;;;;101.70;31.08;;;;;;;;;;12837810;19;20482;-70
2023/01/25 12:38:59;;;;;;;55.80;17.92;;;;;;;;;;12837702;19;20477;-70
2023/01/25 12:43:38;;;;;;;83.25;27.13;;;;;;;;;;12838235;19;20703;-71
2023/01/25 12:48:02;;;;;;;62.08;19.33;;;;;;;;;;12838289;19;20468;-70
2023/01/25 12:52:25;;;;;;;27.55;13.02;;;;;;;;;;12838856;19;20382;-71
2023/01/25 12:57:18;;;;;;;33.10;14.85;;;;;;;;;;12841729;19;20444;-70
2023/01/25 13:02:00;;;;;;;107.03;44.67;;;;;;;;;;12835427;19;20424;-71
2023/01/25 13:06:35;;;;;;;10.13;6.25;;;;;;;;;;12835722;19;20082;-72
2023/01/25 13:11:10;;;;;;;57.15;19.75;;;;;;;;;;12836736;19;20469;-70
2023/01/25 13:15:39;;;;;;;140.05;37.40;;;;;;;;;;12834819;19;20490;-71
2023/01/25 13:19:57;;;;;;;93.88;33.40;;;;;;;;;;12834140;19;20372;-70
2023/01/25 13:24:21;;;;;;;64.00;25.10;;;;;;;;;;12832560;19;20428;-71
2023/01/25 13:28:44;;;;;;;41.28;17.13;;;;;;;;;;12837026;19;20301;-71
2023/01/25 13:33:05;;;;;;;109.70;37.13;;;;;;;;;;12835201;19;20504;-71
2023/01/25 13:37:30;;;;;;;63.03;24.63;;;;;;;;;;12841684;19;20347;-71
2023/01/25 13:42:17;;;;;;;59.00;22.85;;;;;;;;;;12852301;19;20378;-71
2023/01/25 13:46:35;;;;;;;41.35;17.25;;;;;;;;;;12845505;19;20401;-70
2023/01/25 13:51:09;;;;;;;91.53;33.00;;;;;;;;;;12849216;19;20018;-71
2023/01/25 13:55:28;;;;;;;62.38;25.35;;;;;;;;;;12846030;19;20347;-71
2023/01/25 13:59:46;;;;;;;81.75;31.88;;;;;;;;;;12845818;19;20002;-71
2023/01/25 14:04:11;;;;;;;91.72;31.88;;;;;;;;;;12847128;19;20052;-71
2023/01/25 14:08:29;;;;;;;41.78;17.10;;;;;;;;;;12845982;19;20493;-71
2023/01/25 14:12:48;;;;;;;44.28;18.05;;;;;;;;;;12846043;19;20390;-70
2023/01/25 14:17:19;;;;;;;87.55;34.95;;;;;;;;;;12843989;19;20546;-71
2023/01/25 14:21:38;;;;;;;43.08;17.77;;;;;;;;;;12844974;19;20479;-71
2023/01/25 14:25:58;;;;;;;45.17;21.33;;;;;;;;;;12844654;19;20574;-72
2023/01/25 14:30:21;;;;;;;48.13;21.55;;;;;;;;;;12839406;19;20587;-70
2023/01/25 14:34:39;;;;;;;61.13;27.48;;;;;;;;;;12840981;19;20357;-71
2023/01/25 14:38:56;;;;;;;25.67;13.23;;;;;;;;;;12841872;19;20367;-72
2023/01/25 14:43:16;;;;;;;65.30;31.13;;;;;;;;;;12842080;19;20388;-72
2023/01/25 14:47:34;;;;;;;43.63;19.83;;;;;;;;;;12841860;19;20011;-72
2023/01/25 14:52:13;;;;;;;41.67;18.73;;;;;;;;;;12846258;19;20489;-70
2023/01/25 14:56:32;;;;;;;24.85;13.02;;;;;;;;;;12842659;19;20384;-71
2023/01/25 15:00:56;;;;;;;39.80;17.77;;;;;;;;;;12845853;19;20388;-72
2023/01/25 15:05:14;;;;;;;73.85;35.05;;;;;;;;;;12842703;19;20655;-71
2023/01/25 15:09:41;;;;;;;70.72;23.48;;;;;;;;;;12844926;19;20473;-72
2023/01/25 15:14:12;;;;;;;25.70;11.23;;;;;;;;;;12843659;19;20476;-71
2023/01/25 15:18:53;;;;;;;32.67;11.63;;;;;;;;;;12841013;19;20367;-70
2023/01/25 15:23:30;;;;;;;55.42;15.18;;;;;;;;;;12841661;19;20488;-72
2023/01/25 15:27:48;;;;;;;46.80;16.73;;;;;;;;;;12844628;19;20501;-71
2023/01/25 15:32:19;;;;;;;157.57;52.00;;;;;;;;;;12842858;19;20375;-72
2023/01/25 15:36:37;;;;;;;72.07;27.92;;;;;;;;;;12841702;19;20536;-70
2023/01/25 15:41:00;;;;;;;21.92;10.40;;;;;;;;;;12843492;19;20424;-71
2023/01/25 15:45:27;;;;;;;28.33;13.50;;;;;;;;;;12809126;19;20506;-71
2023/01/25 15:50:00;;;;;;;60.35;29.50;;;;;;;;;;12840097;19;20371;-70
2023/01/25 15:54:18;;;;;;;35.13;16.40;;;;;;;;;;12841103;19;20347;-71
2023/01/25 15:58:39;;;;;;;14.57;7.32;;;;;;;;;;12838983;19;20491;-71
2023/01/25 16:02:57;;;;;;;10.30;6.30;;;;;;;;;;12839827;19;20388;-72
2023/01/25 16:07:49;;;;;;;10.57;5.90;;;;;;;;;;12834345;19;20468;-73
2023/01/25 16:12:27;;;;;;;15.38;8.40;;;;;;;;;;12839073;19;21067;-71
2023/01/25 16:16:51;;;;;;;24.48;11.88;;;;;;;;;;12840513;19;20481;-71
2023/01/25 16:21:12;;;;;;;19.08;11.10;;;;;;;;;;12837822;19;20468;-70
2023/01/25 16:25:30;;;;;;;22.05;12.70;;;;;;;;;;12837862;19;20179;-71
2023/01/25 16:29:47;;;;;;;25.30;14.25;;;;;;;;;;12819393;19;20392;-70
2023/01/25 16:34:05;;;;;;;18.55;10.82;;;;;;;;;;12833612;19;20464;-70
2023/01/25 16:38:23;;;;;;;15.20;8.15;;;;;;;;;;12835656;19;20426;-71
2023/01/25 16:42:40;;;;;;;16.37;10.20;;;;;;;;;;12838676;19;20415;-69
2023/01/25 16:46:58;;;;;;;16.92;10.00;;;;;;;;;;12838173;19;20239;-70
2023/01/25 16:51:23;;;;;;;13.38;7.57;;;;;;;;;;12836114;19;20460;-70
2023/01/25 16:55:41;;;;;;;13.98;7.60;;;;;;;;;;12836200;19;20370;-72
2023/01/25 16:59:58;;;;;;;17.25;8.98;;;;;;;;;;12835756;19;20352;-69
2023/01/25 17:04:19;;;;;;;12.32;6.60;;;;;;;;;;12838178;19;20019;-71
2023/01/25 17:08:37;;;;;;;13.27;8.20;;;;;;;;;;12835967;19;20384;-71
2023/01/25 17:12:54;;;;;;;9.17;5.77;;;;;;;;;;12846525;19;20014;-71
2023/01/25 17:17:11;;;;;;;14.60;8.77;;;;;;;;;;12850698;19;20351;-71
2023/01/25 17:21:30;;;;;;;14.27;7.97;;;;;;;;;;12849999;19;20812;-71
2023/01/25 17:25:48;;;;;;;12.63;7.18;;;;;;;;;;12847110;19;20513;-71
2023/01/25 17:30:07;;;;;;;8.43;5.23;;;;;;;;;;12848302;19;20357;-70
2023/01/25 17:34:25;;;;;;;24.73;10.18;;;;;;;;;;12847701;19;21154;-70
2023/01/25 17:38:43;;;;;;;113.37;41.20;;;;;;;;;;12847375;19;20354;-70
2023/01/25 17:43:03;;;;;;;61.85;24.02;;;;;;;;;;12848178;19;20792;-70
2023/01/25 17:47:20;;;;;;;40.70;16.15;;;;;;;;;;12845927;19;20007;-70
2023/01/25 17:51:38;;;;;;;58.47;22.17;;;;;;;;;;12848522;19;20503;-69
2023/01/25 17:56:02;;;;;;;51.03;20.90;;;;;;;;;;12846289;19;20437;-71
2023/01/25 18:00:20;;;;;;;105.53;36.67;;;;;;;;;;12845826;19;20358;-70
2023/01/25 18:04:38;;;;;;;74.70;28.20;;;;;;;;;;12846171;19;20078;-69
2023/01/25 18:09:01;;;;;;;20.27;11.07;;;;;;;;;;12846748;19;20496;-71
2023/01/25 18:13:19;;;;;;;8.30;4.88;;;;;;;;;;12843929;19;20066;-70
2023/01/25 18:17:37;;;;;;;47.33;23.40;;;;;;;;;;12845087;19;20005;-71
2023/01/25 18:21:56;;;;;;;12.77;6.85;;;;;;;;;;12844390;19;20049;-70
2023/01/25 18:26:16;;;;;;;;;;;;;;;;;;12844916;19;20481;-71
2023/01/25 18:30:40;;;;;;;8.68;5.18;;;;;;;;;;12844742;19;19949;-69
2023/01/25 18:34:58;;;;;;;9.88;5.35;;;;;;;;;;12843581;19;20447;-69
2023/01/25 18:39:15;;;;;;;31.17;14.80;;;;;;;;;;12843214;19;20472;-70
2023/01/25 18:43:34;;;;;;;19.15;10.13;;;;;;;;;;12842728;19;20484;-70
2023/01/25 18:47:52;;;;;;;18.50;10.63;;;;;;;;;;12844055;19;20488;-69
2023/01/25 18:52:09;;;;;;;25.92;12.40;;;;;;;;;;12843404;19;20387;-70
2023/01/25 18:56:30;;;;;;;26.60;13.77;;;;;;;;;;12842579;19;20018;-70
2023/01/25 19:00:47;;;;;;;21.85;11.35;;;;;;;;;;12846633;19;20081;-69
2023/01/25 19:05:06;;;;;;;59.95;25.10;;;;;;;;;;12842422;19;20455;-69
2023/01/25 19:09:24;;;;;;;27.13;12.35;;;;;;;;;;12842435;19;20019;-70
2023/01/25 19:13:43;;;;;;;26.75;13.80;;;;;;;;;;12840920;19;20485;-70
2023/01/25 19:18:00;;;;;;;9.15;5.75;;;;;;;;;;12841207;19;20091;-73
2023/01/25 19:22:18;;;;;;;9.65;5.38;;;;;;;;;;12842984;19;20366;-70
2023/01/25 19:26:36;;;;;;;;;;;;;;;;;;12843642;19;20456;-70
2023/01/25 19:30:54;;;;;;;9.90;6.43;;;;;;;;;;12840550;19;20277;-69
2023/01/25 19:35:12;;;;;;;;;;;;;;;;;;12842065;19;20460;-69
2023/01/25 19:39:29;;;;;;;8.77;4.80;;;;;;;;;;12839851;19;20222;-70
2023/01/25 19:43:52;;;;;;;7.50;4.60;;;;;;;;;;12840632;19;20330;-70
2023/01/25 19:48:10;;;;;;;8.77;4.03;;;;;;;;;;12840154;19;20345;-68
2023/01/25 19:52:28;;;;;;;6.90;4.35;;;;;;;;;;12839879;19;20354;-69
2023/01/25 19:56:48;;;;;;;12.40;6.38;;;;;;;;;;12841624;19;20366;-70
2023/01/25 20:01:21;;;;;;;12.15;6.93;;;;;;;;;;12836584;19;20332;-69
2023/01/25 20:05:39;;;;;;;22.63;11.55;;;;;;;;;;12839127;19;20464;-70
2023/01/25 20:09:56;;;;;;;60.58;33.10;;;;;;;;;;12838421;19;20372;-69
2023/01/25 20:14:14;;;;;;;14.85;7.22;;;;;;;;;;12839373;19;20504;-68
2023/01/25 20:18:33;;;;;;;9.27;5.05;;;;;;;;;;12838350;19;20452;-69
2023/01/25 20:22:52;;;;;;;10.45;5.72;;;;;;;;;;12837070;19;20056;-68
2023/01/25 20:27:09;;;;;;;11.30;6.38;;;;;;;;;;12837308;19;20395;-70
2023/01/25 20:31:36;;;;;;;88.95;35.83;;;;;;;;;;12839240;19;20372;-70
2023/01/25 20:36:04;;;;;;;24.35;10.55;;;;;;;;;;12837664;19;20386;-69
2023/01/25 20:40:21;;;;;;;19.80;8.13;;;;;;;;;;12838399;19;24058;-69
2023/01/25 20:44:39;;;;;;;44.13;15.38;;;;;;;;;;12836750;19;20465;-68
2023/01/25 20:48:56;;;;;;;319.67;86.33;;;;;;;;;;12838511;19;20350;-68
2023/01/25 20:53:15;;;;;;;248.27;62.80;;;;;;;;;;12836600;19;20393;-68
2023/01/25 20:57:32;;;;;;;65.78;21.50;;;;;;;;;;12836617;19;20477;-69
2023/01/25 21:01:50;;;;;;;165.55;42.75;;;;;;;;;;12836842;19;20497;-68
2023/01/25 21:06:08;;;;;;;293.90;65.18;;;;;;;;;;12836230;19;20484;-69
2023/01/25 21:10:26;;;;;;;;;;;;;;;;;;12838057;19;20418;-70
2023/01/25 21:14:43;;;;;;;137.48;37.80;;;;;;;;;;12837750;19;19983;-69
2023/01/25 21:19:05;;;;;;;189.05;45.78;;;;;;;;;;12835265;19;20123;-73
2023/01/25 21:23:23;;;;;;;115.82;31.27;;;;;;;;;;12834249;19;20446;-69
2023/01/25 21:27:40;;;;;;;275.97;66.53;;;;;;;;;;12837677;19;20582;-69
2023/01/25 21:31:58;;;;;;;85.93;24.77;;;;;;;;;;12836786;19;20454;-69
2023/01/25 21:36:17;;;;;;;50.28;18.50;;;;;;;;;;12833150;19;20494;-70
2023/01/25 21:40:35;;;;;;;17.92;8.43;;;;;;;;;;12831872;19;20356;-70
2023/01/25 21:54:05;;;;;;;10.90;7.15;;;;;;;;;;12833286;19;20014;-69
2023/01/25 21:58:23;;;;;;;14.35;7.00;;;;;;;;;;12840153;19;20472;-69
2023/01/25 22:02:42;;;;;;;138.25;33.42;;;;;;;;;;12845052;19;20018;-69
2023/01/25 22:07:03;;;;;;;110.57;30.30;;;;;;;;;;12846237;19;20326;-69
2023/01/25 22:11:21;;;;;;;18.88;10.32;;;;;;;;;;12845800;19;20367;-68
2023/01/25 22:15:39;;;;;;;30.35;10.95;;;;;;;;;;12842047;19;20347;-69
2023/01/25 22:19:56;;;;;;;10.52;6.78;;;;;;;;;;12845052;19;20394;-70
2023/01/25 22:24:14;;;;;;;207.68;48.33;;;;;;;;;;12840798;19;20508;-70
2023/01/25 22:28:54;;;;;;;26.63;13.48;;;;;;;;;;12842925;19;20006;-69
2023/01/25 22:33:11;;;;;;;145.63;37.08;;;;;;;;;;12841231;19;20521;-69
2023/01/25 22:37:29;;;;;;;112.72;32.22;;;;;;;;;;12840783;19;20510;-70
2023/01/25 22:41:46;;;;;;;257.45;67.78;;;;;;;;;;12843711;19;20367;-69
2023/01/25 22:46:07;;;;;;;231.98;61.65;;;;;;;;;;12841438;19;20549;-69
2023/01/25 22:50:25;;;;;;;140.80;44.38;;;;;;;;;;12840808;19;20426;-70
2023/01/25 22:54:42;;;;;;;39.33;18.13;;;;;;;;;;12840601;19;20496;-68
2023/01/25 22:59:00;;;;;;;105.13;31.52;;;;;;;;;;12842081;19;20599;-68
2023/01/25 23:03:18;;;;;;;32.50;15.43;;;;;;;;;;12840618;19;20493;-70
2023/01/25 23:07:35;;;;;;;23.65;12.65;;;;;;;;;;12840461;19;20374;-69
2023/01/25 23:11:53;;;;;;;19.77;12.13;;;;;;;;;;12840715;19;20504;-68
2023/01/25 23:16:10;;;;;;;22.92;12.98;;;;;;;;;;12840560;19;20018;-70
2023/01/25 23:20:28;;;;;;;67.88;24.10;;;;;;;;;;12840450;19;20371;-68
2023/01/25 23:24:46;;;;;;;139.98;42.67;;;;;;;;;;12839454;19;20434;-68
2023/01/25 23:29:07;;;;;;;22.05;11.00;;;;;;;;;;12842022;19;20500;-69
2023/01/25 23:33:25;;;;;;;20.15;10.57;;;;;;;;;;12839486;19;20627;-69
2023/01/25 23:37:45;;;;;;;16.10;9.10;;;;;;;;;;12840880;19;20129;-69
2023/01/25 23:42:03;;;;;;;14.80;9.63;;;;;;;;;;12836353;19;20425;-69
2023/01/25 23:46:22;;;;;;;12.07;7.45;;;;;;;;;;12837407;19;20332;-68
2023/01/25 23:50:40;;;;;;;18.02;10.45;;;;;;;;;;12839699;19;20485;-70
2023/01/25 23:54:57;;;;;;;37.17;15.80;;;;;;;;;;12839763;19;20526;-69
2023/01/25 23:59:15;;;;;;;19.10;10.07;;;;;;;;;;12836495;19;20346;-69
